Latest Coastal Weather Observations for Warrnambool

IDV60701

Issued at 11:25 pm EDT Monday 24 November 2014 (issued every 10 minutes, with the page automatically refreshed every 10 minutes)

About coastal observations | Map of coastal stations | Coastal observations for VIC | Marine services | Other Formats
Station Details ID: 090186 Name: WARRNAMBOOL AIRPORT NDB Lat: -38.29 Lon: 142.45 Height: 70.8 m
Data from the previous 72 hours. | See also: Recent months at Warrnambool
Date/Time
EDT
Temp

°C
Wind Pressure Rain
since 9am
mm
Weather Cloud Vis
km
Sea
Height
m
Swell
Dir
 
Speed
knots
Gust
knots
hPa Trend Height
m
Period
s
Dir
24/11:00pm 9.9 NW 7 9 1014.5 - 0.4 - - - - - - -
24/10:30pm 11.2 W 13 17 1014.5 - 0.4 - - - - - - -
24/10:00pm 11.6 W 9 13 1014.1 - 0.4 - - - - - - -
24/09:30pm 11.7 W 11 14 1013.8 - 0.4 - - - - - - -
24/09:00pm 12.4 W 16 21 1013.5 - 0.4 - - - - - - -
24/08:30pm 13.0 WSW 15 19 1013.1 - 0.4 - - - - - - -
24/08:00pm 13.7 W 18 23 1012.6 - 0.4 - - - - - - -
24/07:40pm 14.0 WSW 19 29 1012.2 - 0.4 - - - - - - -
24/07:30pm 14.3 WSW 19 27 1012.0 - 0.4 - - - - - - -
24/07:01pm 14.7 WSW 19 29 1011.4 - 0.4 - - - - - - -
24/07:00pm 14.7 WSW 20 29 1011.4 - 0.4 - - - - - - -
24/06:30pm 15.1 WSW 22 30 1010.5 - 0.4 - - - - - - -
24/06:09pm 16.0 WSW 19 29 1010.3 - 0.4 - - - - - - -
24/06:00pm 15.8 WSW 20 28 1010.2 - 0.4 - - - - - - -
24/05:30pm 15.4 WSW 23 31 1009.9 - 0.4 - - - - - - -
24/05:00pm 14.9 WSW 19 29 1009.9 - 0.4 - - - - - - -
24/04:30pm 14.6 WSW 14 19 1009.8 - 0.4 - - - - - - -
24/04:00pm 14.1 WSW 13 20 1009.8 - 0.4 - - - - - - -
24/03:30pm 12.4 WSW 17 22 1010.0 - 0.4 - - - - - - -
24/03:14pm 12.1 WSW 17 27 1010.0 - 0.4 - - - - - - -
24/03:00pm 12.8 WSW 19 24 1010.1 - 0.4 Rain - - - - - -
24/02:30pm 13.6 SW 21 27 1009.6 - 0.0 - - - - - - -
24/02:13pm 16.3 WSW 16 29 1009.2 - 0.0 - - - - - - -
24/02:00pm 17.8 WSW 13 19 1008.9 - 0.0 - - - - - - -
24/01:30pm 18.8 WSW 10 14 1008.9 - 0.0 - - - - - - -
24/01:00pm 18.4 W 8 11 1008.9 - 0.0 - - - - - - -
24/12:30pm 17.5 W 7 10 1008.8 - 0.0 - - - - - - -
24/12:00pm 15.9 WSW 7 9 1009.1 - 0.0 - - - - - - -
24/11:30am 15.5 WSW 7 9 1009.2 - 0.0 - - - - - - -
24/11:00am 15.5 W 3 6 1009.1 - 0.0 - - - - - - -
24/10:30am 15.1 SSW 7 9 1008.6 - 0.0 - - - - - - -
24/10:00am 15.5 NNW 3 4 1008.9 - 0.0 - - - - - - -
24/09:30am 14.6 NNE 3 6 1009.0 - 0.0 - - - - - - -
24/09:00am 13.9 SE 3 4 1008.8 - 1.8 Recent precip. - - - - - -
24/08:30am 13.4 SSE 3 5 1009.2 - 1.4 - - - - - - -
24/08:00am 12.9 WSW 5 7 1009.5 - 1.4 - - - - - - -
24/07:30am 12.9 SW 5 6 1009.1 - 0.8 - - - - - - -
24/07:00am 12.6 E 3 6 1008.6 - 0.2 - - - - - - -
24/06:30am 12.3 ENE 5 8 1008.3 - 0.2 - - - - - - -
24/06:00am 12.7 ENE 3 5 1009.3 - 0.0 - - - - - - -
24/05:50am 12.7 NW 3 10 1010.3 - 0.0 - - - - - - -
24/05:30am 12.3 E 3 5 1008.2 - 0.0 - - - - - - -
24/05:00am 11.8 E 3 5 1008.3 - 0.0 - - - - - - -
24/04:30am 12.3 SSE 5 6 1008.5 - 0.0 - - - - - - -
24/04:00am 12.5 SE 5 6 1008.5 - 0.0 - - - - - - -
24/03:30am 12.7 ESE 5 6 1008.7 - 0.0 - - - - - - -
24/03:00am 12.9 E 3 5 1009.4 - 0.0 - - - - - - -
24/02:30am 13.4 E 5 7 1010.0 - 0.0 - - - - - - -
24/02:00am 13.0 ESE 4 6 1010.4 - 0.0 - - - - - - -
24/01:30am 12.4 ENE 5 7 1011.2 - 0.0 - - - - - - -
24/01:00am 11.6 ENE 1 3 1011.7 - 0.0 - - - - - - -
24/12:30am 10.4 ENE 1 5 1012.1 - 0.0 - - - - - - -
24/12:00am 12.5 E 2 4 1012.1 - 0.0 - - - - - - -
 
Date/Time
EDT
Temp

°C
Wind Pressure Rain
since 9am
mm
Weather Cloud Vis
km
Sea
Height
m
Swell
Dir
 
Speed
knots
Gust
knots
hPa Trend Height
m
Period
s
Dir
23/11:30pm 13.5 ENE 4 6 1012.5 - 0.0 - - - - - - -
23/11:00pm 13.2 E 2 4 1013.1 - 0.0 - - - - - - -
23/10:30pm 14.6 E 2 4 1013.4 - 0.0 - - - - - - -
23/10:00pm 14.7 E 3 4 1012.8 - 0.0 - - - - - - -
23/09:30pm 14.4 ESE 4 5 1012.3 - 0.0 - - - - - - -
23/09:00pm 14.9 E 3 5 1013.0 - 0.0 - - - - - - -
23/08:30pm 15.5 SE 3 5 1013.1 - 0.0 - - - - - - -
23/08:00pm 16.0 S 6 7 1013.0 - 0.0 - - - - - - -
23/07:30pm 16.6 SSE 9 11 1012.1 - 0.0 - - - - - - -
23/07:00pm 17.3 S 10 13 1011.7 - 0.0 - - - - - - -
23/06:30pm 17.2 S 11 14 1012.0 - 0.0 - - - - - - -
23/06:00pm 17.6 S 11 13 1012.6 - 0.0 - - - - - - -
23/05:30pm 18.1 SSW 11 14 1012.7 - 0.0 - - - - - - -
23/05:00pm 18.6 SSW 11 13 1012.5 - 0.0 - - - - - - -
23/04:30pm 19.4 SSW 11 14 1012.2 - 0.0 - - - - - - -
23/04:00pm 19.2 S 9 12 1012.3 - 0.0 - - - - - - -
23/03:30pm 19.4 S 12 16 1012.6 - 0.0 - - - - - - -
23/03:00pm 20.5 S 10 13 1012.2 - 0.0 - - - - - - -
23/02:30pm 20.7 SSW 10 15 1012.2 - 0.0 - - - - - - -
23/02:00pm 20.4 S 9 14 1012.3 - 0.0 - - - - - - -
23/01:30pm 20.8 SSW 11 15 1012.1 - 0.0 - - - - - - -
23/01:00pm 21.1 SW 12 17 1011.9 - 0.0 - - - - - - -
23/12:30pm 21.4 S 11 13 1011.8 - 0.0 - - - - - - -
23/12:00pm 20.8 NNW 6 9 1012.3 - 0.0 - - - - - - -
23/11:30am 19.5 WNW 7 11 1012.5 - 0.0 - - - - - - -
23/11:00am 19.0 WNW 5 8 1012.7 - 0.0 - - - - - - -
23/10:30am 18.2 WNW 5 8 1013.1 - 0.0 - - - - - - -
23/10:00am 16.0 NW 5 8 1013.4 - 0.0 - - - - - - -
23/09:30am 15.2 N 6 8 1013.6 - 0.0 - - - - - - -
23/09:00am 14.0 N 7 9 1013.5 - 0.2 - - - - - - -
23/08:30am 12.4 N 7 8 1013.1 - 0.2 - - - - - - -
23/08:00am 12.3 N 6 6 1012.8 - 0.2 - - - - - - -
23/07:30am 11.2 NNW 5 5 1012.4 - 0.0 - - - - - - -
23/07:00am 10.3 N 5 6 1012.2 - 0.0 - - - - - - -
23/06:30am 9.9 N 5 7 1011.8 - 0.0 - - - - - - -
23/06:00am 8.8 N 5 6 1011.3 - 0.0 - - - - - - -
23/05:30am 8.7 N 6 7 1011.0 - 0.0 - - - - - - -
23/05:00am 9.4 NNW 6 7 1010.9 - 0.0 - - - - - - -
23/04:30am 9.6 NNW 6 7 1010.7 - 0.0 - - - - - - -
23/04:00am 10.1 NW 6 7 1010.6 - 0.0 - - - - - - -
23/03:30am 9.8 NNW 5 5 1010.6 - 0.0 - - - - - - -
23/03:00am 10.0 NW 5 7 1010.7 - 0.0 - - - - - - -
23/02:30am 8.7 NW 5 7 1010.9 - 0.0 - - - - - - -
23/02:00am 9.0 NNW 5 7 1010.7 - 0.0 - - - - - - -
23/01:30am 10.3 NNW 6 7 1010.8 - 0.0 - - - - - - -
23/01:00am 10.5 WNW 5 7 1010.9 - 0.0 - - - - - - -
23/12:30am 12.3 W 7 8 1010.8 - 0.0 - - - - - - -
23/12:00am 13.1 W 6 8 1010.8 - 0.0 - - - - - - -
 
Date/Time
EDT
Temp

°C
Wind Pressure Rain
since 9am
mm
Weather Cloud Vis
km
Sea
Height
m
Swell
Dir
 
Speed
knots
Gust
knots
hPa Trend Height
m
Period
s
Dir
22/11:30pm 13.6 W 7 8 1010.6 - 0.0 - - - - - - -
22/11:00pm 14.3 W 6 7 1010.4 - 0.0 - - - - - - -
22/10:30pm 15.4 WSW 7 10 1010.2 - 0.0 - - - - - - -
22/10:00pm 15.8 WSW 6 9 1009.9 - 0.0 - - - - - - -
22/09:30pm 15.6 SW 7 9 1009.4 - 0.0 - - - - - - -
22/09:00pm 16.1 SW 7 10 1008.9 - 0.0 - - - - - - -
22/08:30pm 16.2 SW 12 17 1008.2 - 0.0 - - - - - - -
22/08:00pm 16.9 SW 18 24 1007.3 - 0.0 - - - - - - -
22/07:30pm 17.6 WSW 20 25 1006.5 - 0.0 - - - - - - -
22/07:00pm 18.6 WSW 19 25 1005.9 - 0.0 - - - - - - -
22/06:55pm 19.0 WSW 20 30 1005.9 - 0.0 - - - - - - -
22/06:30pm 20.5 WSW 22 30 1005.5 - 0.0 - - - - - - -
22/06:00pm 22.2 WSW 21 30 1005.0 - 0.0 - - - - - - -
22/05:30pm 21.9 SW 18 23 1004.6 - 0.0 - - - - - - -
22/05:00pm 24.1 SW 17 22 1004.3 - 0.0 - - - - - - -
22/04:30pm 25.3 SW 19 26 1004.2 - 0.0 - - - - - - -
22/04:15pm 26.7 WSW 15 19 1004.3 - 0.0 - - - - - - -
22/04:00pm 31.8 NW 19 29 1003.8 - 0.0 - - - - - - -
22/03:30pm 31.3 NNW 19 26 1003.9 - 0.0 - - - - - - -
22/03:01pm 31.3 NNW 19 29 1004.1 - 0.0 - - - - - - -
22/03:00pm 31.5 NNW 20 29 1004.1 - 0.0 - - - - - - -
22/02:43pm 30.7 NNW 22 32 1004.2 - 0.0 - - - - - - -
22/02:30pm 31.0 NNW 22 31 1004.4 - 0.0 - - - - - - -
22/02:00pm 30.5 N 23 35 1004.7 - 0.0 - - - - - - -
22/01:30pm 30.7 NNW 25 36 1005.0 - 0.0 - - - - - - -
22/01:07pm 29.3 N 22 33 1005.3 - 0.0 - - - - - - -
22/01:00pm 28.6 N 22 29 1005.4 - 0.0 - - - - - - -
22/12:30pm 28.6 N 19 29 1005.9 - 0.0 - - - - - - -
22/12:27pm 28.8 N 19 29 1005.9 - 0.0 - - - - - - -
22/12:00pm 28.5 N 19 24 1006.4 - 0.0 - - - - - - -
22/11:30am 26.0 N 18 26 1006.5 - 0.0 - - - - - - -
22/11:00am 24.1 N 16 23 1007.3 - 0.0 - - - - - - -
22/10:30am 21.1 N 14 21 1007.3 - 0.0 - - - - - - -
22/10:00am 20.6 N 14 19 1008.2 - 0.0 - - - - - - -
22/09:30am 20.3 NNE 13 18 1008.2 - 0.0 - - - - - - -
22/09:00am 17.3 NNE 14 18 1007.6 - 0.0 - - - - - - -
22/08:30am 16.4 NNE 12 17 1007.6 - 0.0 - - - - - - -
22/08:00am 13.7 N 8 9 1008.1 - 0.0 - - - - - - -
22/07:30am 11.9 NNE 15 21 1007.4 - 0.0 - - - - - - -
22/07:25am 11.9 NE 14 17 1007.3 - 0.0 - - - - - - -
22/07:00am 11.4 N 11 14 1009.4 - 0.0 - - - - - - -
22/06:30am 11.3 N 4 5 1010.1 - 0.0 - - - - - - -
22/06:00am 11.0 ENE 8 11 1008.8 - 0.0 - - - - - - -
22/05:30am 10.8 ENE 4 6 1009.5 - 0.0 - - - - - - -
22/05:00am 10.5 ENE 5 6 1009.4 - 0.0 - - - - - - -
22/04:30am 11.0 WSW 6 10 1010.4 - 0.0 - - - - - - -
22/04:00am 11.4 WNW 5 6 1010.5 - 0.0 - - - - - - -
22/03:30am 11.5 NE 6 9 1009.6 - 0.0 - - - - - - -
22/03:00am 10.8 NNE 9 13 1009.1 - 0.0 - - - - - - -
22/02:30am 10.5 NNE 9 11 1009.5 - 0.0 - - - - - - -
22/02:00am 10.6 NNE 7 9 1009.7 - 0.0 - - - - - - -
22/01:30am 11.0 NNE 9 11 1010.0 - 0.0 - - - - - - -
22/01:00am 10.6 NNE 7 11 1010.5 - 0.0 - - - - - - -
22/12:30am 10.8 NE 7 10 1010.9 - 0.0 - - - - - - -
22/12:00am 9.8 NNE 6 8 1011.9 - 0.0 - - - - - - -
 
Date/Time
EDT
Temp

°C
Wind Pressure Rain
since 9am
mm
Weather Cloud Vis
km
Sea
Height
m
Swell
Dir
 
Speed
knots
Gust
knots
hPa Trend Height
m
Period
s
Dir
21/11:30pm 10.1 NE 6 7 1011.8 - 0.0 - - - - - - -

Other Formats:

Comma delimited format used in spreadsheet applications
http://www.bom.gov.au/fwo/IDV60701/IDV60701.94837.axf

JavaScript Object Notation format (JSON) in row-major order
http://www.bom.gov.au/fwo/IDV60701/IDV60701.94837.json